Webster Springs, West Virginia
Current Conditions -  °F | °C
As of 9:35 AM on Monday 26 Jan 2015 (Local Time) from KW22 Reporting Station
Haze Haze  
Wind Chill: 37°   Ceiling: 2300
Heat Index: 37°   Visibility: 1mi
Dew Point: 37°   Wind: 0mph
Humidity: 100%   Direction: NA
Pressure: 29.62"   Gusts: NA
Location:  38.48°N, 80.41°W
Report Text: KW22 261435Z AUTO 00000KT 1SM BR SCT001 OVC023 03/03 A2962 RMK AO2
Loading
Personal Weather Stations






























Interactive Weather Map New forecast layout! Learn more

10-Day Weather Forecast

Advertisements
Track Severe Weather on mobile